Time;durP1;ratioP1;P1;durP2;ratioP2;P2;SDS_P1;SDS_P2;PMS_P1;PMS_P2;Temp;Humidity;BMP_temperature;BMP_pressure;BME280_temperature;BME280_humidity;BME280_pressure;Samples;Min_cycle;Max_cycle;Signal;HPM_P1;HPM_P2
2021/12/02 00:01:54;;;;;;;1.20;0.37;;;5.40;99.90;;;;;;5087749;28;20198;-64
2021/12/02 00:04:20;;;;;;;1.37;0.43;;;5.50;99.90;;;;;;5086696;28;20178;-64
2021/12/02 00:06:46;;;;;;;0.60;0.30;;;5.40;99.90;;;;;;5086732;28;20222;-63
2021/12/02 00:09:11;;;;;;;1.43;0.60;;;5.40;99.90;;;;;;5087768;28;20217;-64
2021/12/02 00:11:37;;;;;;;0.60;0.40;;;5.30;99.90;;;;;;5087622;28;20196;-65
2021/12/02 00:14:09;;;;;;;0.80;0.40;;;5.20;99.90;;;;;;5087593;28;20190;-63
2021/12/02 00:17:02;;;;;;;0.60;0.47;;;5.20;99.90;;;;;;5086736;28;20214;-64
2021/12/02 00:22:11;;;;;;;0.70;0.60;;;5.20;99.90;;;;;;5087833;28;20462;-64
2021/12/02 00:24:39;;;;;;;4.10;0.50;;;5.20;99.90;;;;;;5086145;28;20441;-63
2021/12/02 00:27:07;;;;;;;0.70;0.40;;;5.20;99.90;;;;;;5087572;28;20922;-64
2021/12/02 00:29:34;;;;;;;0.63;0.43;;;5.10;99.90;;;;;;5087448;28;20974;-64
2021/12/02 00:32:07;;;;;;;1.33;0.80;;;5.10;99.90;;;;;;5085691;28;20463;-64
2021/12/02 00:34:34;;;;;;;0.60;0.40;;;5.10;99.90;;;;;;5087481;28;20459;-64
2021/12/02 00:37:01;;;;;;;0.60;0.40;;;5.10;99.90;;;;;;5087414;28;20483;-64
2021/12/02 00:39:29;;;;;;;0.50;0.30;;;5.10;99.90;;;;;;5087572;28;20426;-65
2021/12/02 00:41:56;;;;;;;0.60;0.40;;;5.00;99.90;;;;;;5084603;28;20423;-64
2021/12/02 00:44:21;;;;;;;0.90;0.40;;;5.10;99.90;;;;;;5085556;28;20427;-64
2021/12/02 00:46:48;;;;;;;0.60;0.30;;;5.00;99.90;;;;;;5087121;28;20431;-65
2021/12/02 00:49:17;;;;;;;0.83;0.40;;;5.10;99.90;;;;;;5087879;28;20182;-65
2021/12/02 00:51:55;;;;;;;0.50;0.30;;;5.00;99.90;;;;;;5087174;28;20428;-64
2021/12/02 00:54:23;;;;;;;0.70;0.30;;;5.00;99.90;;;;;;5083253;28;20416;-64
2021/12/02 00:56:49;;;;;;;1.43;0.40;;;4.90;99.90;;;;;;5068875;28;21004;-66
2021/12/02 00:59:16;;;;;;;14.07;6.23;;;5.00;99.90;;;;;;5084794;28;20425;-65
2021/12/02 01:01:42;;;;;;;2.93;1.60;;;4.90;99.90;;;;;;5086224;28;20971;-65
2021/12/02 01:04:11;;;;;;;0.60;0.30;;;4.90;99.90;;;;;;5086092;28;20465;-64
2021/12/02 01:06:38;;;;;;;2.50;0.40;;;4.90;99.90;;;;;;5087921;28;20490;-65
2021/12/02 01:09:06;;;;;;;0.70;0.40;;;4.90;99.90;;;;;;5090175;28;20783;-65
2021/12/02 01:11:31;;;;;;;0.60;0.30;;;4.80;99.90;;;;;;5087499;28;20428;-63
2021/12/02 01:13:57;;;;;;;0.60;0.40;;;4.80;99.90;;;;;;5089065;28;20187;-64
2021/12/02 01:16:23;;;;;;;3.43;0.40;;;4.80;99.90;;;;;;5089542;28;20236;-64
2021/12/02 01:18:49;;;;;;;0.50;0.33;;;4.80;99.90;;;;;;5089864;28;20193;-65
2021/12/02 01:21:18;;;;;;;2.30;0.40;;;4.80;99.90;;;;;;5088404;28;20854;-64
2021/12/02 01:23:46;;;;;;;0.50;0.30;;;4.80;99.90;;;;;;5090409;28;20179;-64
2021/12/02 01:26:16;;;;;;;0.60;0.40;;;4.80;99.90;;;;;;5088783;28;20926;-66
2021/12/02 01:28:43;;;;;;;1.17;0.30;;;4.80;99.90;;;;;;5089291;28;21296;-66
2021/12/02 01:31:11;;;;;;;1.83;0.53;;;4.80;99.90;;;;;;5090774;28;20435;-65
2021/12/02 01:33:39;;;;;;;0.80;0.40;;;4.70;99.90;;;;;;5089327;28;20439;-63
2021/12/02 01:36:05;;;;;;;3.23;0.40;;;4.80;99.90;;;;;;5090619;28;21033;-64
2021/12/02 01:38:32;;;;;;;0.70;0.50;;;4.90;99.90;;;;;;5089339;28;20433;-64
2021/12/02 01:41:00;;;;;;;0.70;0.40;;;4.80;99.90;;;;;;5089106;28;21032;-64
2021/12/02 01:43:49;;;;;;;1.43;0.30;;;4.80;99.90;;;;;;5089173;28;20486;-63
2021/12/02 01:46:21;;;;;;;3.05;0.60;;;4.80;99.90;;;;;;5086945;28;20448;-64
2021/12/02 01:48:54;;;;;;;1.77;0.50;;;4.90;99.90;;;;;;5086163;28;20204;-64
2021/12/02 01:51:23;;;;;;;2.33;0.43;;;4.90;99.90;;;;;;5089133;28;20458;-64
2021/12/02 01:53:50;;;;;;;1.20;0.50;;;4.80;99.90;;;;;;5089292;28;20556;-64
2021/12/02 01:56:17;;;;;;;2.03;0.47;;;4.80;99.90;;;;;;5089889;28;20557;-64
2021/12/02 01:58:49;;;;;;;0.70;0.57;;;4.70;99.90;;;;;;5088867;28;20521;-63
2021/12/02 02:01:26;;;;;;;2.03;0.70;;;4.70;99.90;;;;;;5090290;28;20934;-64
2021/12/02 02:03:54;;;;;;;1.50;0.40;;;4.80;99.90;;;;;;5090357;28;20423;-64
2021/12/02 02:06:41;;;;;;;1.48;0.68;;;4.80;99.90;;;;;;5089592;28;20303;-64
2021/12/02 02:09:08;;;;;;;2.37;0.57;;;4.80;99.90;;;;;;5084234;28;20335;-65
2021/12/02 02:11:34;;;;;;;2.40;0.93;;;4.90;99.90;;;;;;5090309;28;20423;-63
2021/12/02 02:14:01;;;;;;;2.80;0.80;;;4.90;99.90;;;;;;5090004;28;20508;-63
2021/12/02 02:16:28;;;;;;;0.95;0.40;;;4.90;99.90;;;;;;5088462;28;20225;-64
2021/12/02 02:18:54;;;;;;;4.97;0.60;;;4.90;99.90;;;;;;5087891;28;20192;-63
2021/12/02 02:21:22;;;;;;;2.40;0.50;;;4.90;99.90;;;;;;5088569;28;20637;-63
2021/12/02 02:23:57;;;;;;;2.85;0.50;;;4.90;99.90;;;;;;5090191;28;20515;-63
2021/12/02 02:26:30;;;;;;;2.53;0.60;;;5.00;99.90;;;;;;5089532;28;20190;-64
2021/12/02 02:28:57;;;;;;;0.60;0.40;;;4.90;99.90;;;;;;5088023;28;20431;-63
2021/12/02 02:31:23;;;;;;;0.70;0.50;;;4.90;99.90;;;;;;5089530;28;20427;-65
2021/12/02 02:33:51;;;;;;;3.23;0.50;;;4.90;99.90;;;;;;5089344;28;20546;-65
2021/12/02 02:36:24;;;;;;;3.33;0.50;;;4.90;99.90;;;;;;5088897;28;20818;-65
2021/12/02 02:38:57;;;;;;;1.33;0.40;;;4.90;99.90;;;;;;5089405;28;20829;-65
2021/12/02 02:41:26;;;;;;;1.60;0.37;;;4.80;99.90;;;;;;5088964;28;20881;-65
2021/12/02 02:43:56;;;;;;;0.70;0.50;;;4.70;99.90;;;;;;5089010;28;20436;-65
2021/12/02 02:46:27;;;;;;;0.50;0.30;;;4.70;99.90;;;;;;5087267;28;20435;-64
2021/12/02 02:48:53;;;;;;;0.60;0.37;;;4.60;99.90;;;;;;5087685;28;20436;-64
2021/12/02 02:51:20;;;;;;;0.50;0.30;;;4.40;99.90;;;;;;5088577;28;20442;-64
2021/12/02 02:53:51;;;;;;;0.60;0.50;;;4.40;99.90;;;;;;5088751;28;21232;-65
2021/12/02 02:56:18;;;;;;;0.60;0.40;;;4.30;99.90;;;;;;5070328;28;20299;-65
2021/12/02 02:59:05;;;;;;;0.60;0.40;;;4.30;99.90;;;;;;5088868;28;20727;-64
2021/12/02 03:07:03;;;;;;;2.17;0.50;;;4.20;99.90;;;;;;5087065;28;20471;-65
2021/12/02 03:12:18;;;;;;;0.90;0.57;;;4.10;99.90;;;;;;5084826;28;20430;-65
2021/12/02 03:17:11;;;;;;;1.67;0.50;;;4.20;99.90;;;;;;5088093;28;21056;-64
2021/12/02 03:19:42;;;;;;;1.00;0.43;;;4.10;99.90;;;;;;5088475;28;20442;-64
2021/12/02 03:22:08;;;;;;;1.30;0.50;;;4.10;99.90;;;;;;5088246;28;20193;-64
2021/12/02 03:24:34;;;;;;;3.70;0.75;;;4.10;99.90;;;;;;5088490;28;20451;-64
2021/12/02 03:27:00;;;;;;;2.55;0.60;;;4.10;99.90;;;;;;5088065;28;20735;-64
2021/12/02 03:29:25;;;;;;;1.83;0.50;;;4.10;99.90;;;;;;5086528;28;20203;-63
2021/12/02 03:31:51;;;;;;;1.40;0.57;;;4.10;99.90;;;;;;5088173;28;20301;-64
2021/12/02 03:34:17;;;;;;;0.97;0.43;;;4.20;99.90;;;;;;5088244;28;20185;-65
2021/12/02 03:36:43;;;;;;;7.57;0.60;;;4.20;99.90;;;;;;5087900;28;20982;-63
2021/12/02 03:39:10;;;;;;;1.90;0.60;;;4.20;99.90;;;;;;5086544;28;20279;-64
2021/12/02 03:41:37;;;;;;;0.63;0.50;;;4.20;99.90;;;;;;5086479;28;20431;-64
2021/12/02 03:44:03;;;;;;;1.15;0.40;;;4.20;99.90;;;;;;5087421;28;20246;-66
2021/12/02 03:46:29;;;;;;;2.60;0.90;;;4.30;99.90;;;;;;5087749;28;20639;-65
2021/12/02 03:48:55;;;;;;;0.50;0.30;;;4.30;99.90;;;;;;5087778;28;20481;-64
2021/12/02 03:51:22;;;;;;;1.60;0.60;;;4.20;99.90;;;;;;5087686;28;20193;-64
2021/12/02 03:53:48;;;;;;;0.93;0.40;;;4.30;99.90;;;;;;5087462;28;20226;-64
2021/12/02 03:56:15;;;;;;;1.13;0.60;;;4.30;99.90;;;;;;5087285;28;20290;-64
2021/12/02 03:58:42;;;;;;;1.83;0.50;;;4.30;99.90;;;;;;5087321;28;20926;-64
2021/12/02 04:01:09;;;;;;;0.57;0.40;;;4.20;99.90;;;;;;5087341;28;20611;-64
2021/12/02 04:03:35;;;;;;;0.50;0.40;;;4.10;99.90;;;;;;5087302;28;20741;-64
2021/12/02 04:06:01;;;;;;;1.35;0.40;;;4.20;99.90;;;;;;5085415;28;20471;-65
2021/12/02 04:08:50;;;;;;;2.93;0.90;;;4.10;99.90;;;;;;5087140;28;20244;-65
2021/12/02 04:11:27;;;;;;;0.70;0.60;;;4.10;99.90;;;;;;5082128;28;20444;-63
2021/12/02 04:14:11;;;;;;;0.98;0.55;;;4.10;99.90;;;;;;5084065;28;20525;-65
2021/12/02 04:16:39;;;;;;;0.70;0.50;;;4.10;99.90;;;;;;5087130;28;20213;-64
2021/12/02 04:19:06;;;;;;;0.88;0.63;;;4.10;99.90;;;;;;5087094;28;20434;-64
2021/12/02 04:21:32;;;;;;;2.67;0.60;;;4.10;99.90;;;;;;5085980;28;20190;-65
2021/12/02 04:23:58;;;;;;;1.60;0.60;;;4.10;99.90;;;;;;5085428;28;20181;-66
2021/12/02 04:26:23;;;;;;;2.00;0.50;;;4.20;99.90;;;;;;5086021;28;20424;-67
2021/12/02 04:28:50;;;;;;;5.57;0.80;;;4.20;99.90;;;;;;5084865;28;20442;-64
2021/12/02 04:31:15;;;;;;;2.07;1.00;;;4.20;99.90;;;;;;5069159;28;20241;-64
2021/12/02 04:33:41;;;;;;;1.57;1.00;;;4.20;99.90;;;;;;5087100;28;20909;-63
2021/12/02 04:36:07;;;;;;;1.50;0.60;;;4.30;99.90;;;;;;5086559;28;20753;-64
2021/12/02 04:38:33;;;;;;;1.10;0.60;;;4.30;99.90;;;;;;5087035;28;20187;-65
2021/12/02 04:40:59;;;;;;;0.70;0.60;;;4.30;99.90;;;;;;5084878;28;20462;-64
2021/12/02 04:43:25;;;;;;;1.00;0.90;;;4.30;99.90;;;;;;5087036;28;20571;-65
2021/12/02 04:45:52;;;;;;;3.87;0.90;;;4.40;99.90;;;;;;5086538;28;20447;-64
2021/12/02 04:48:19;;;;;;;1.00;0.77;;;4.20;99.90;;;;;;5086671;28;20435;-64
2021/12/02 04:50:46;;;;;;;0.80;0.70;;;4.20;99.90;;;;;;5085390;28;20920;-63
2021/12/02 04:53:12;;;;;;;4.47;0.80;;;4.20;99.90;;;;;;5087213;28;20532;-65
2021/12/02 04:55:38;;;;;;;2.40;0.60;;;4.20;99.90;;;;;;5086644;28;20218;-65
2021/12/02 04:58:04;;;;;;;1.20;0.70;;;4.10;99.90;;;;;;5085527;28;20667;-64
2021/12/02 05:00:30;;;;;;;1.53;0.67;;;4.20;99.90;;;;;;5086829;28;20295;-64
2021/12/02 05:02:56;;;;;;;4.13;0.83;;;4.20;99.90;;;;;;5086647;28;20450;-64
2021/12/02 05:05:23;;;;;;;2.35;0.80;;;4.20;99.90;;;;;;5086894;28;21052;-64
2021/12/02 05:07:52;;;;;;;1.33;0.50;;;4.10;99.90;;;;;;5068313;28;20198;-63
2021/12/02 05:10:18;;;;;;;0.97;0.50;;;4.20;99.90;;;;;;5086502;28;20248;-64
2021/12/02 05:12:44;;;;;;;1.40;0.60;;;4.30;99.90;;;;;;5085115;28;20917;-65
2021/12/02 05:15:09;;;;;;;0.80;0.60;;;4.30;99.90;;;;;;5086645;28;20672;-65
2021/12/02 05:17:35;;;;;;;0.70;0.50;;;4.40;99.90;;;;;;5084773;28;20296;-65
2021/12/02 05:20:02;;;;;;;5.60;0.50;;;4.40;99.90;;;;;;5084993;28;20426;-66
2021/12/02 05:22:27;;;;;;;0.80;0.60;;;4.40;99.90;;;;;;5084501;28;20197;-66
2021/12/02 05:24:53;;;;;;;1.43;0.53;;;4.40;99.90;;;;;;5085583;28;20189;-66
2021/12/02 05:27:19;;;;;;;1.40;0.73;;;4.30;99.90;;;;;;5085665;28;21063;-66
2021/12/02 05:29:44;;;;;;;0.90;0.67;;;4.40;99.90;;;;;;5085795;28;20189;-66
2021/12/02 05:32:10;;;;;;;2.30;0.60;;;4.40;99.90;;;;;;5085737;28;20193;-67
2021/12/02 05:34:36;;;;;;;2.40;0.70;;;4.40;99.90;;;;;;5085612;28;20217;-66
2021/12/02 05:37:01;;;;;;;0.80;0.53;;;4.40;99.90;;;;;;5085865;28;20219;-67
2021/12/02 05:39:27;;;;;;;1.17;0.50;;;4.40;99.90;;;;;;5083943;28;20184;-67
2021/12/02 05:41:53;;;;;;;0.90;0.70;;;4.40;99.90;;;;;;5085648;28;20193;-65
2021/12/02 05:44:21;;;;;;;0.70;0.40;;;4.40;99.90;;;;;;5080049;28;20188;-67
2021/12/02 05:46:47;;;;;;;0.80;0.63;;;4.40;99.90;;;;;;5081141;28;20522;-67
2021/12/02 05:49:13;;;;;;;0.60;0.50;;;4.40;99.90;;;;;;5083509;28;20439;-67
2021/12/02 05:51:40;;;;;;;0.93;0.50;;;4.40;99.90;;;;;;5083802;28;20449;-67
2021/12/02 05:54:06;;;;;;;0.70;0.47;;;4.40;99.90;;;;;;5087215;28;20227;-67
2021/12/02 05:56:32;;;;;;;4.00;0.73;;;4.50;99.90;;;;;;5086421;28;21052;-67
2021/12/02 05:58:57;;;;;;;1.37;0.50;;;4.40;99.90;;;;;;5083772;28;20191;-67
2021/12/02 06:01:23;;;;;;;2.10;0.50;;;4.50;99.90;;;;;;5086084;28;20200;-67
2021/12/02 06:03:48;;;;;;;1.43;0.50;;;4.40;99.90;;;;;;5086979;28;20197;-67
2021/12/02 06:06:16;;;;;;;1.23;0.60;;;4.40;99.90;;;;;;5086199;28;20220;-67
2021/12/02 06:08:42;;;;;;;0.95;0.55;;;4.50;99.90;;;;;;5068223;28;20207;-67
2021/12/02 06:11:08;;;;;;;2.13;0.60;;;4.40;99.90;;;;;;5085263;28;20196;-67
2021/12/02 06:13:33;;;;;;;1.00;0.60;;;4.40;99.90;;;;;;5084919;28;20224;-67
2021/12/02 06:15:59;;;;;;;0.70;0.50;;;4.60;99.90;;;;;;5086619;28;20220;-67
2021/12/02 06:18:25;;;;;;;2.00;0.70;;;4.40;99.90;;;;;;5086844;28;20435;-67
2021/12/02 06:20:54;;;;;;;0.70;0.60;;;4.50;99.90;;;;;;5087076;28;20189;-67
2021/12/02 06:23:21;;;;;;;2.17;0.70;;;4.40;99.90;;;;;;5085527;28;20179;-67
2021/12/02 06:25:48;;;;;;;1.77;0.80;;;4.40;99.90;;;;;;5086812;28;20902;-67
2021/12/02 06:28:14;;;;;;;0.83;0.50;;;4.40;99.90;;;;;;5086611;28;20199;-67
2021/12/02 06:30:40;;;;;;;0.98;0.70;;;4.50;99.90;;;;;;5086605;28;20960;-67
2021/12/02 06:33:06;;;;;;;0.90;0.60;;;4.50;99.90;;;;;;5086668;28;20201;-67
2021/12/02 06:35:32;;;;;;;1.57;1.10;;;4.50;99.90;;;;;;5068586;28;20439;-67
2021/12/02 06:37:58;;;;;;;1.80;0.70;;;4.50;99.90;;;;;;5085817;28;20184;-67
2021/12/02 06:40:23;;;;;;;1.10;0.60;;;4.50;99.90;;;;;;5087005;28;20431;-67
2021/12/02 06:42:49;;;;;;;0.90;0.70;;;4.50;99.90;;;;;;5085189;28;20664;-66
2021/12/02 06:45:15;;;;;;;1.00;0.57;;;4.50;99.90;;;;;;5084270;28;20193;-66
2021/12/02 06:47:41;;;;;;;0.70;0.70;;;4.40;99.90;;;;;;5084818;28;20479;-67
2021/12/02 06:50:19;;;;;;;1.70;0.83;;;4.40;99.90;;;;;;5086582;28;20185;-67
2021/12/02 06:52:46;;;;;;;1.07;0.97;;;4.40;99.90;;;;;;5084556;28;20872;-67
2021/12/02 06:55:13;;;;;;;1.17;1.00;;;4.50;99.90;;;;;;5086027;28;20424;-67
2021/12/02 06:57:39;;;;;;;1.35;0.98;;;4.50;99.90;;;;;;5085881;28;20465;-66
2021/12/02 07:00:08;;;;;;;0.93;0.60;;;4.50;99.90;;;;;;5086130;28;20193;-67
2021/12/02 07:02:35;;;;;;;1.23;1.10;;;4.40;99.90;;;;;;5085792;28;20885;-67
2021/12/02 07:05:01;;;;;;;1.07;0.60;;;4.50;99.90;;;;;;5085317;28;20637;-68
2021/12/02 07:07:31;;;;;;;1.63;0.90;;;4.40;99.90;;;;;;5083231;28;20471;-67
2021/12/02 07:09:59;;;;;;;1.10;1.00;;;4.40;99.90;;;;;;5085808;28;20425;-67
2021/12/02 07:12:30;;;;;;;1.40;1.13;;;4.30;99.90;;;;;;5084187;28;20621;-67
2021/12/02 07:14:59;;;;;;;2.07;1.13;;;4.40;99.90;;;;;;5085900;28;20306;-67
2021/12/02 07:17:25;;;;;;;1.60;1.50;;;4.40;99.90;;;;;;5085221;28;20537;-67
2021/12/02 07:19:50;;;;;;;3.80;1.37;;;4.40;99.90;;;;;;5084106;28;20441;-67
2021/12/02 07:22:16;;;;;;;2.70;1.20;;;4.40;99.90;;;;;;5085319;28;20444;-68
2021/12/02 07:24:41;;;;;;;2.50;1.30;;;4.40;99.90;;;;;;5085443;28;20190;-67
2021/12/02 07:27:07;;;;;;;1.30;1.00;;;4.40;99.90;;;;;;5083801;28;20855;-67
2021/12/02 07:29:33;;;;;;;1.33;1.23;;;4.40;99.90;;;;;;5083533;28;20759;-68
2021/12/02 07:32:02;;;;;;;2.65;1.35;;;4.40;99.90;;;;;;5084243;28;20700;-67
2021/12/02 07:34:33;;;;;;;1.50;1.23;;;4.40;99.90;;;;;;5085075;28;20195;-67
2021/12/02 07:36:59;;;;;;;1.30;1.13;;;4.30;99.90;;;;;;5084856;28;20542;-67
2021/12/02 07:39:25;;;;;;;3.13;0.93;;;4.30;99.90;;;;;;5084788;28;20431;-67
2021/12/02 07:41:51;;;;;;;1.60;1.00;;;4.20;99.90;;;;;;5066951;28;21254;-67
2021/12/02 07:44:18;;;;;;;1.03;0.80;;;4.20;99.90;;;;;;5084834;28;20189;-67
2021/12/02 07:46:44;;;;;;;2.10;0.90;;;4.20;99.90;;;;;;5083447;28;20195;-68
2021/12/02 07:49:13;;;;;;;1.33;0.90;;;4.20;99.90;;;;;;5083667;28;21216;-67
2021/12/02 07:51:44;;;;;;;1.63;0.80;;;4.30;99.90;;;;;;5084467;28;21012;-68
2021/12/02 07:54:12;;;;;;;3.57;1.00;;;4.20;99.90;;;;;;5067108;28;20531;-67
2021/12/02 07:56:38;;;;;;;2.47;0.90;;;4.20;99.90;;;;;;5083921;28;20495;-68
2021/12/02 07:59:05;;;;;;;1.47;0.83;;;4.20;99.90;;;;;;5083962;28;21170;-67
2021/12/02 08:01:34;;;;;;;2.00;0.77;;;4.30;99.90;;;;;;5083837;28;20435;-68
2021/12/02 08:04:00;;;;;;;1.00;0.70;;;4.30;99.90;;;;;;5083723;28;20458;-68
2021/12/02 08:06:27;;;;;;;0.97;0.70;;;4.30;99.90;;;;;;5084715;28;20562;-68
2021/12/02 08:08:53;;;;;;;4.00;1.03;;;4.30;99.90;;;;;;5083556;28;20449;-68
2021/12/02 08:11:19;;;;;;;1.10;1.00;;;4.40;99.90;;;;;;5083542;28;21037;-68
2021/12/02 08:13:50;;;;;;;2.10;1.20;;;4.40;99.90;;;;;;5085332;28;20288;-67
2021/12/02 08:16:18;;;;;;;3.10;0.70;;;4.30;99.90;;;;;;5083814;28;20208;-67
2021/12/02 08:18:44;;;;;;;1.20;1.10;;;4.40;99.90;;;;;;5084869;28;20423;-68
2021/12/02 08:21:10;;;;;;;1.57;0.80;;;4.40;99.90;;;;;;5084425;28;20427;-68
2021/12/02 08:23:35;;;;;;;2.60;1.37;;;4.50;99.90;;;;;;5084741;28;20991;-67
2021/12/02 08:26:01;;;;;;;2.87;1.23;;;4.50;99.90;;;;;;5082991;28;20238;-68
2021/12/02 08:28:28;;;;;;;1.60;0.90;;;4.50;99.90;;;;;;5066118;28;20196;-68
2021/12/02 08:30:54;;;;;;;2.80;0.63;;;4.60;99.90;;;;;;5084555;28;20189;-68
2021/12/02 08:33:20;;;;;;;2.33;1.00;;;4.60;99.90;;;;;;5083451;28;20448;-68
2021/12/02 08:35:46;;;;;;;1.88;0.88;;;4.50;99.90;;;;;;5082869;28;20446;-68
2021/12/02 08:38:15;;;;;;;2.00;0.93;;;4.60;99.90;;;;;;5084826;28;20190;-67
2021/12/02 08:40:42;;;;;;;1.40;0.80;;;4.60;99.90;;;;;;5084840;28;20195;-67
2021/12/02 08:43:13;;;;;;;1.10;1.00;;;4.70;99.90;;;;;;5084309;28;20434;-67
2021/12/02 08:45:40;;;;;;;1.87;0.70;;;4.60;99.90;;;;;;5081972;28;20443;-67
2021/12/02 08:48:07;;;;;;;4.10;0.60;;;4.60;99.90;;;;;;5084154;28;20436;-68
2021/12/02 08:50:34;;;;;;;1.50;0.70;;;4.70;99.90;;;;;;5082544;28;20510;-68
2021/12/02 08:53:01;;;;;;;2.63;0.73;;;4.60;99.90;;;;;;5083784;28;20432;-67
2021/12/02 08:55:30;;;;;;;2.57;0.73;;;4.70;99.90;;;;;;5083575;28;20428;-67
2021/12/02 08:57:56;;;;;;;1.10;0.65;;;4.70;99.90;;;;;;5083655;28;20483;-67
2021/12/02 09:00:32;;;;;;;5.17;1.20;;;4.70;99.90;;;;;;5082914;28;20182;-68
2021/12/02 09:02:58;;;;;;;0.65;0.47;;;4.70;99.90;;;;;;5081563;28;20462;-68
2021/12/02 09:05:24;;;;;;;0.57;0.47;;;4.70;99.90;;;;;;5081946;28;20193;-67
2021/12/02 09:07:50;;;;;;;2.70;0.80;;;4.90;99.90;;;;;;5083264;28;20561;-68
2021/12/02 09:10:16;;;;;;;0.87;0.47;;;5.00;99.90;;;;;;5065773;28;20295;-68
2021/12/02 09:12:42;;;;;;;1.03;0.50;;;4.90;99.90;;;;;;5082167;28;20193;-68
2021/12/02 09:15:08;;;;;;;1.77;0.70;;;5.00;99.90;;;;;;5082083;28;20439;-68
2021/12/02 09:17:35;;;;;;;1.33;0.60;;;5.00;99.90;;;;;;5083556;28;20486;-68
2021/12/02 09:20:03;;;;;;;0.70;0.40;;;5.00;99.90;;;;;;5082218;28;20439;-68
2021/12/02 09:22:28;;;;;;;1.93;0.77;;;5.10;99.90;;;;;;5083974;28;20749;-68
2021/12/02 09:24:54;;;;;;;0.60;0.50;;;5.20;99.90;;;;;;5082274;28;20450;-68
2021/12/02 09:27:19;;;;;;;1.43;0.50;;;5.10;99.90;;;;;;5085227;28;20644;-68
2021/12/02 09:29:45;;;;;;;0.70;0.50;;;5.20;99.90;;;;;;5087601;28;20199;-67
2021/12/02 09:32:11;;;;;;;0.70;0.40;;;5.20;99.90;;;;;;5087575;28;20637;-68
2021/12/02 09:34:37;;;;;;;1.05;0.70;;;5.20;99.90;;;;;;5088421;28;20277;-68
2021/12/02 09:37:04;;;;;;;1.33;0.80;;;5.30;99.90;;;;;;5086262;28;20608;-67
2021/12/02 09:39:30;;;;;;;1.20;0.60;;;5.30;99.90;;;;;;5069478;28;20505;-68
2021/12/02 09:41:56;;;;;;;0.90;0.50;;;5.70;99.90;;;;;;5087157;28;21096;-68
2021/12/02 09:44:22;;;;;;;0.73;0.50;;;5.90;99.90;;;;;;5085475;28;20439;-68
2021/12/02 09:46:47;;;;;;;0.90;0.50;;;6.20;99.90;;;;;;5086731;28;20860;-68
2021/12/02 09:49:14;;;;;;;0.70;0.50;;;6.60;99.90;;;;;;5086079;28;20486;-68
2021/12/02 09:52:03;;;;;;;2.50;0.80;;;6.80;99.90;;;;;;5087646;28;20190;-68
2021/12/02 09:55:04;;;;;;;1.50;0.67;;;6.90;99.90;;;;;;5087089;28;20839;-68
2021/12/02 09:57:23;;;;;;;2.30;0.90;;;7.00;99.90;;;;;;5086752;28;20472;-68
2021/12/02 09:59:51;;;;;;;0.70;0.63;;;7.10;99.90;;;;;;5086046;28;20452;-69
2021/12/02 10:02:19;;;;;;;0.70;0.60;;;7.10;99.90;;;;;;5085854;28;20464;-68
2021/12/02 10:04:51;;;;;;;1.27;0.60;;;7.10;99.90;;;;;;5085971;28;20449;-68
2021/12/02 10:10:08;;;;;;;1.27;0.50;;;6.40;99.90;;;;;;5087673;28;20593;-68
2021/12/02 10:12:36;;;;;;;1.13;0.60;;;6.50;99.90;;;;;;5087318;28;20934;-68
2021/12/02 10:15:10;;;;;;;0.90;0.50;;;6.30;99.90;;;;;;5087058;28;20548;-68
2021/12/02 10:17:38;;;;;;;0.70;0.60;;;6.50;99.90;;;;;;5086509;28;20539;-68
2021/12/02 10:23:29;;;;;;;1.77;0.70;;;6.40;99.90;;;;;;5086848;28;20463;-68
2021/12/02 10:26:03;;;;;;;2.30;0.80;;;6.40;99.90;;;;;;5063609;28;21362;-68
2021/12/02 10:28:34;;;;;;;1.30;0.80;;;6.20;99.90;;;;;;5048116;28;20437;-68
2021/12/02 10:31:03;;;;;;;0.70;0.60;;;6.10;99.90;;;;;;5067564;28;20833;-68
2021/12/02 10:33:38;;;;;;;1.77;0.87;;;6.00;99.90;;;;;;5085154;28;20431;-68
2021/12/02 10:36:25;;;;;;;3.70;0.93;;;6.10;99.90;;;;;;5051583;28;20532;-68
2021/12/02 10:38:51;;;;;;;6.50;0.90;;;6.00;99.90;;;;;;5083602;28;20486;-68
2021/12/02 10:41:24;;;;;;;1.93;0.97;;;6.20;99.90;;;;;;5086115;28;20420;-68
2021/12/02 10:44:11;;;;;;;1.33;0.73;;;6.10;99.90;;;;;;5086226;28;21371;-68
2021/12/02 10:46:42;;;;;;;5.10;1.10;;;6.10;99.90;;;;;;5085643;28;20479;-68
2021/12/02 10:49:15;;;;;;;2.10;0.90;;;6.00;99.90;;;;;;5086341;28;20432;-68
2021/12/02 10:51:46;;;;;;;2.30;1.10;;;6.00;99.90;;;;;;5086495;28;20424;-68
2021/12/02 10:54:15;;;;;;;2.30;1.10;;;6.00;99.90;;;;;;5087004;28;20474;-68
2021/12/02 10:56:48;;;;;;;7.77;1.00;;;5.90;99.90;;;;;;5067592;28;20468;-68
2021/12/02 10:59:40;;;;;;;0.80;0.60;;;5.90;99.90;;;;;;5086132;28;20424;-68
2021/12/02 11:02:16;;;;;;;2.60;0.90;;;5.80;99.90;;;;;;5085728;28;20479;-68
2021/12/02 11:04:45;;;;;;;4.10;1.20;;;5.80;99.90;;;;;;5085342;28;21036;-68
2021/12/02 11:07:18;;;;;;;0.70;0.50;;;5.60;99.90;;;;;;5066604;28;21056;-67
2021/12/02 11:09:44;;;;;;;1.57;0.70;;;5.50;99.90;;;;;;5085540;28;20446;-68
2021/12/02 11:12:16;;;;;;;1.43;0.90;;;5.30;99.90;;;;;;5085666;28;20429;-68
2021/12/02 11:14:53;;;;;;;2.47;0.80;;;5.20;99.90;;;;;;5085656;28;20267;-68
2021/12/02 11:17:20;;;;;;;2.07;0.67;;;5.20;99.90;;;;;;5084037;28;20503;-67
2021/12/02 11:19:51;;;;;;;1.27;0.50;;;5.20;99.90;;;;;;5085374;28;20439;-68
2021/12/02 11:22:19;;;;;;;0.70;0.70;;;5.00;99.90;;;;;;5085319;28;20811;-68
2021/12/02 11:24:47;;;;;;;1.10;0.80;;;4.50;99.90;;;;;;5084931;28;20923;-68
2021/12/02 11:27:21;;;;;;;0.60;0.40;;;3.90;99.90;;;;;;5085212;28;20427;-68
2021/12/02 11:29:59;;;;;;;1.00;0.53;;;3.60;99.90;;;;;;5085558;28;20882;-68
2021/12/02 11:32:38;;;;;;;1.10;0.80;;;3.40;99.90;;;;;;5083415;28;20507;-68
2021/12/02 11:35:24;;;;;;;0.87;0.87;;;3.30;99.90;;;;;;5083775;28;20436;-68
2021/12/02 11:38:17;;;;;;;1.57;0.80;;;3.30;99.90;;;;;;5085202;28;20551;-68
2021/12/02 11:40:45;;;;;;;0.87;0.57;;;3.30;99.90;;;;;;5085026;28;20521;-68
2021/12/02 11:43:13;;;;;;;1.20;1.10;;;3.40;99.90;;;;;;5083693;28;20485;-68
2021/12/02 11:45:46;;;;;;;1.57;1.30;;;3.40;99.90;;;;;;5084278;28;20286;-69
2021/12/02 11:48:20;;;;;;;2.55;0.68;;;3.40;99.90;;;;;;5085526;28;20429;-68
2021/12/02 11:50:47;;;;;;;1.33;0.60;;;3.40;99.90;;;;;;5085114;28;20188;-68
2021/12/02 11:53:14;;;;;;;0.70;0.67;;;3.40;99.90;;;;;;5085096;28;21237;-68
2021/12/02 11:55:42;;;;;;;0.77;0.77;;;3.40;99.90;;;;;;5083472;28;20771;-68
2021/12/02 11:58:09;;;;;;;0.60;0.50;;;3.40;99.90;;;;;;5085280;28;20692;-69
2021/12/02 12:00:36;;;;;;;0.70;0.60;;;3.50;99.90;;;;;;5085296;28;20188;-69
2021/12/02 12:03:14;;;;;;;0.70;0.57;;;3.40;99.90;;;;;;5085225;28;20453;-69
2021/12/02 12:06:04;;;;;;;0.70;0.60;;;3.40;99.90;;;;;;5083101;28;20457;-69
2021/12/02 12:08:37;;;;;;;0.70;0.60;;;3.30;99.90;;;;;;5083979;28;20284;-69
2021/12/02 12:11:28;;;;;;;1.85;0.90;;;3.40;99.90;;;;;;5084836;28;20216;-69
2021/12/02 12:13:56;;;;;;;1.10;1.00;;;3.50;99.90;;;;;;5065925;28;20195;-69
2021/12/02 12:16:43;;;;;;;1.00;0.80;;;3.60;99.90;;;;;;5084234;28;20310;-69
2021/12/02 12:19:21;;;;;;;4.22;0.85;;;3.70;99.90;;;;;;5085044;28;20248;-69
2021/12/02 12:21:55;;;;;;;0.60;0.60;;;3.70;99.90;;;;;;5084791;28;20188;-69
2021/12/02 12:24:37;;;;;;;1.45;1.20;;;3.70;99.90;;;;;;5084249;28;20195;-69
2021/12/02 12:27:10;;;;;;;0.80;0.80;;;3.80;99.90;;;;;;5084243;28;20189;-69
2021/12/02 12:29:36;;;;;;;1.35;0.77;;;3.70;99.90;;;;;;5084797;28;20277;-69
2021/12/02 12:37:20;;;;;;;1.93;0.70;;;3.80;99.90;;;;;;5083928;28;20462;-69
2021/12/02 12:40:08;;;;;;;4.22;0.60;;;3.80;99.90;;;;;;5084704;28;20185;-69
2021/12/02 12:42:36;;;;;;;0.80;0.80;;;3.80;99.90;;;;;;5084880;28;20648;-69
2021/12/02 12:45:05;;;;;;;1.20;1.10;;;3.80;99.90;;;;;;5066582;28;20537;-69
2021/12/02 12:47:46;;;;;;;2.30;0.77;;;3.80;99.90;;;;;;5084194;28;20426;-69
2021/12/02 12:50:33;;;;;;;1.15;0.88;;;3.90;99.90;;;;;;5082047;28;20438;-69
2021/12/02 12:53:05;;;;;;;1.07;0.93;;;4.00;99.90;;;;;;5084177;28;20655;-69
2021/12/02 12:55:52;;;;;;;0.80;0.80;;;4.00;99.90;;;;;;5082522;28;20491;-69
2021/12/02 12:58:23;;;;;;;0.90;0.80;;;4.00;99.90;;;;;;5064899;28;20886;-69
2021/12/02 13:00:59;;;;;;;1.08;0.93;;;4.00;99.90;;;;;;5082642;28;20431;-69
2021/12/02 13:03:36;;;;;;;0.93;0.77;;;4.00;99.90;;;;;;5086674;28;20312;-69
2021/12/02 13:06:19;;;;;;;1.93;0.80;;;4.00;99.90;;;;;;5086221;28;20209;-68
2021/12/02 13:08:49;;;;;;;3.67;0.73;;;4.00;99.90;;;;;;5086459;28;20450;-69
2021/12/02 13:11:20;;;;;;;1.00;0.70;;;4.00;99.90;;;;;;5086091;28;20427;-68
2021/12/02 13:13:48;;;;;;;2.20;1.10;;;4.10;99.90;;;;;;5087782;28;20982;-69
2021/12/02 13:16:18;;;;;;;0.70;0.70;;;4.10;99.90;;;;;;5085980;28;20477;-68
2021/12/02 13:18:57;;;;;;;1.10;0.77;;;4.10;99.90;;;;;;5087724;28;20196;-68
2021/12/02 13:21:29;;;;;;;1.23;0.93;;;4.10;99.90;;;;;;5087316;28;20490;-68
2021/12/02 13:24:05;;;;;;;1.10;0.80;;;4.10;99.90;;;;;;5086315;28;20444;-68
2021/12/02 13:26:44;;;;;;;1.25;1.15;;;4.00;99.90;;;;;;5087255;28;20443;-68
2021/12/02 13:29:20;;;;;;;3.42;0.82;;;4.10;99.90;;;;;;5085270;28;20608;-68
2021/12/02 13:31:53;;;;;;;2.47;0.73;;;4.00;99.90;;;;;;5087304;28;20193;-68
2021/12/02 13:34:21;;;;;;;1.45;0.95;;;4.10;99.90;;;;;;5085888;28;20531;-68